Time;durP1;ratioP1;P1;durP2;ratioP2;P2;SDS_P1;SDS_P2;PMS_P1;PMS_P2;Temp;Humidity;BMP_temperature;BMP_pressure;BME280_temperature;BME280_humidity;BME280_pressure;Samples;Min_cycle;Max_cycle;Signal;HPM_P1;HPM_P2
2022/05/28 00:02:25;;;;;;;9.95;2.75;;;;;;;9.39;100.00;98521.94;6251365;23;20031;-60
2022/05/28 00:05:10;;;;;;;10.32;2.92;;;;;;;9.40;100.00;98501.66;6249122;23;20026;-67
2022/05/28 00:07:54;;;;;;;7.28;2.45;;;;;;;9.52;100.00;98509.16;6207163;23;20035;-60
2022/05/28 00:10:41;;;;;;;9.40;2.40;;;;;;;9.54;100.00;98507.34;6238515;23;20027;-59
2022/05/28 00:13:26;;;;;;;6.50;2.78;;;;;;;9.38;100.00;98472.59;6251359;23;20367;-59
2022/05/28 00:16:12;;;;;;;7.53;2.70;;;;;;;9.54;100.00;98500.22;6228638;23;20189;-59
2022/05/28 00:18:57;;;;;;;6.18;2.95;;;;;;;9.34;100.00;98452.47;6240957;23;20143;-59
2022/05/28 00:21:41;;;;;;;6.10;2.97;;;;;;;9.63;100.00;98482.28;6250983;23;20035;-58
2022/05/28 00:24:27;;;;;;;3.90;2.67;;;;;;;9.45;100.00;98458.25;6215454;23;20577;-61
2022/05/28 00:27:11;;;;;;;5.13;2.60;;;;;;;9.69;100.00;98482.94;6218280;23;20051;-58
2022/05/28 00:29:56;;;;;;;8.55;2.70;;;;;;;9.66;100.00;98464.53;6216443;23;20035;-59
2022/05/28 00:32:42;;;;;;;5.57;2.50;;;;;;;9.70;100.00;98468.81;6250884;23;20074;-60
2022/05/28 00:35:26;;;;;;;5.32;2.63;;;;;;;9.65;100.00;98460.16;6240988;23;20468;-60
2022/05/28 00:38:10;;;;;;;5.88;2.60;;;;;;;9.64;100.00;98457.59;6250752;23;20023;-60
2022/05/28 00:40:58;;;;;;;5.90;2.75;;;;;;;9.71;100.00;98446.69;6240687;23;20476;-60
2022/05/28 00:43:45;;;;;;;5.30;2.50;;;;;;;9.48;100.00;98425.53;6238829;23;20023;-59
2022/05/28 00:46:30;;;;;;;7.35;3.05;;;;;;;9.58;100.00;98456.88;6228510;23;20103;-60
2022/05/28 00:49:22;;;;;;;4.68;2.58;;;;;;;9.43;100.00;98451.28;6228322;23;20050;-60
2022/05/28 00:52:07;;;;;;;5.30;2.83;;;;;;;9.45;100.00;98455.59;6240414;23;20031;-66
2022/05/28 00:54:53;;;;;;;6.50;3.25;;;;;;;9.18;100.00;98439.88;6250816;23;20421;-57
2022/05/28 00:57:42;;;;;;;3.47;2.60;;;;;;;9.15;100.00;98467.25;6248118;23;20026;-58
2022/05/28 01:00:27;;;;;;;7.88;3.20;;;;;;;9.02;100.00;98458.03;6250647;23;20078;-59
2022/05/28 01:03:26;;;;;;;7.63;3.20;;;;;;;9.11;100.00;98447.13;6249793;23;20497;-58
2022/05/28 01:06:19;;;;;;;7.70;3.25;;;;;;;9.22;100.00;98441.50;6225146;23;20031;-58
2022/05/28 01:09:13;;;;;;;15.77;3.97;;;;;;;9.26;100.00;98445.75;6240185;23;20390;-61
2022/05/28 01:12:10;;;;;;;13.50;5.43;;;;;;;9.34;100.00;98456.91;6250485;23;20031;-60
2022/05/28 01:15:19;;;;;;;20.50;6.05;;;;;;;9.43;100.00;98441.53;6216467;23;20030;-59
2022/05/28 01:18:11;;;;;;;30.67;9.25;;;;;;;9.49;100.00;98445.75;6248719;23;20111;-58
2022/05/28 01:21:03;;;;;;;24.08;8.30;;;;;;;9.56;100.00;98436.69;6250315;23;20503;-59
2022/05/28 01:24:06;;;;;;;24.50;8.10;;;;;;;9.66;100.00;98442.50;6227711;23;20042;-61
2022/05/28 01:27:01;;;;;;;24.55;7.50;;;;;;;9.68;100.00;98438.88;6240219;23;20031;-62
2022/05/28 01:29:51;;;;;;;25.02;6.90;;;;;;;9.52;100.00;98437.72;6237871;23;20023;-59
2022/05/28 01:32:37;;;;;;;23.52;8.52;;;;;;;9.48;100.00;98428.16;6250500;23;20419;-59
2022/05/28 01:35:23;;;;;;;25.90;8.65;;;;;;;9.58;100.00;98421.63;6250515;23;20091;-61
2022/05/28 01:38:11;;;;;;;29.00;9.35;;;;;;;9.67;100.00;98425.69;6216244;23;20027;-67
2022/05/28 01:40:57;;;;;;;21.55;8.38;;;;;;;9.76;100.00;98422.72;6240284;23;20031;-59
2022/05/28 01:43:45;;;;;;;26.77;9.40;;;;;;;9.87;100.00;98417.84;6247928;23;20031;-60
2022/05/28 01:46:33;;;;;;;26.95;9.15;;;;;;;9.93;100.00;98420.28;6250335;23;20074;-60
2022/05/28 01:49:21;;;;;;;17.55;6.97;;;;;;;9.99;100.00;98412.06;6240373;23;20063;-61
2022/05/28 01:52:09;;;;;;;16.95;6.47;;;;;;;10.03;100.00;98414.56;6214869;23;20099;-67
2022/05/28 01:54:56;;;;;;;17.23;5.93;;;;;;;10.00;100.00;98417.31;6227365;23;20162;-61
2022/05/28 01:57:41;;;;;;;13.18;5.30;;;;;;;10.03;100.00;98411.03;6216792;23;20494;-62
2022/05/28 02:00:27;;;;;;;13.30;6.43;;;;;;;10.01;100.00;98404.94;6239827;23;20026;-60
2022/05/28 02:03:12;;;;;;;18.10;5.55;;;;;;;10.07;100.00;98405.59;6217812;23;20035;-62
2022/05/28 02:05:56;;;;;;;10.88;5.20;;;;;;;10.09;100.00;98402.91;6215705;23;20117;-69
2022/05/28 02:08:43;;;;;;;13.02;4.88;;;;;;;10.18;100.00;98390.16;6240049;23;20031;-60
2022/05/28 02:11:55;;;;;;;9.15;4.47;;;;;;;10.30;100.00;98402.91;6247832;23;20050;-59
2022/05/28 02:15:08;;;;;;;15.65;4.80;;;;;;;10.44;100.00;98395.22;6224897;23;20036;-61
2022/05/28 02:17:58;;;;;;;11.52;4.45;;;;;;;10.44;100.00;98400.53;6248721;23;20058;-61
2022/05/28 02:21:21;;;;;;;8.77;3.88;;;;;;;10.50;100.00;98388.81;6242012;23;20027;-61
2022/05/28 02:24:15;;;;;;;7.43;4.45;;;;;;;10.51;100.00;98391.41;6118725;23;20389;-64
2022/05/28 02:27:05;;;;;;;5.53;3.95;;;;;;;10.41;100.00;98383.91;6098966;23;20037;-61
2022/05/28 02:29:51;;;;;;;8.55;3.40;;;;;;;10.47;100.00;98391.59;6129203;23;20032;-60
2022/05/28 02:32:36;;;;;;;5.88;3.70;;;;;;;10.43;100.00;98382.91;6119434;23;20120;-60
2022/05/28 02:35:20;;;;;;;6.35;3.42;;;;;;;10.54;100.00;98386.00;6129438;23;20429;-60
2022/05/28 02:38:04;;;;;;;5.15;3.60;;;;;;;10.36;100.00;98356.75;6117155;23;20125;-65
2022/05/28 02:40:49;;;;;;;6.90;3.17;;;;;;;10.17;100.00;98337.25;6099095;23;20029;-60
2022/05/28 02:43:33;;;;;;;10.45;3.55;;;;;;;10.49;100.00;98389.75;6126843;23;20037;-61
2022/05/28 02:46:17;;;;;;;11.18;3.90;;;;;;;10.46;100.00;98390.75;6109611;23;20085;-62
2022/05/28 02:49:03;;;;;;;10.82;6.15;;;;;;;10.40;100.00;98368.94;6110331;23;20084;-60
2022/05/28 02:51:48;;;;;;;11.68;6.70;;;;;;;10.42;100.00;98365.31;6122176;23;20024;-61
2022/05/28 02:54:34;;;;;;;14.10;8.48;;;;;;;10.47;100.00;98360.66;6119840;23;20032;-61
2022/05/28 02:57:18;;;;;;;12.75;8.90;;;;;;;10.62;100.00;98389.19;6106073;23;20109;-71
2022/05/28 03:00:06;;;;;;;16.65;9.00;;;;;;;10.72;100.00;98389.66;6130858;23;20106;-61
2022/05/28 03:02:52;;;;;;;13.23;8.80;;;;;;;10.80;100.00;98387.53;6217582;23;20476;-61
2022/05/28 03:05:37;;;;;;;19.33;8.27;;;;;;;10.90;100.00;98389.72;6251876;23;20379;-61
2022/05/28 03:08:21;;;;;;;10.25;6.05;;;;;;;10.94;100.00;98387.78;6251951;23;20137;-61
2022/05/28 03:11:05;;;;;;;9.63;4.53;;;;;;;11.01;100.00;98376.00;6241554;23;20027;-66
2022/05/28 03:13:52;;;;;;;7.68;4.18;;;;;;;11.03;100.00;98382.94;6251196;23;20371;-61
2022/05/28 03:16:37;;;;;;;7.32;4.32;;;;;;;11.02;100.00;98381.25;6236877;23;20089;-61
2022/05/28 03:19:21;;;;;;;9.27;4.78;;;;;;;11.13;100.00;98372.81;6226388;23;20074;-62
2022/05/28 03:22:06;;;;;;;12.32;5.80;;;;;;;11.11;100.00;98380.81;6237111;23;20062;-60
2022/05/28 03:24:50;;;;;;;8.18;5.15;;;;;;;11.23;100.00;98369.66;6238808;23;20070;-62
2022/05/28 03:27:34;;;;;;;9.68;6.10;;;;;;;11.28;100.00;98366.81;6238761;23;20038;-60
2022/05/28 03:30:19;;;;;;;10.88;5.70;;;;;;;11.42;100.00;98373.22;6248526;23;20077;-61
2022/05/28 03:33:03;;;;;;;10.25;4.50;;;;;;;11.45;100.00;98373.09;6251365;23;20023;-61
2022/05/28 03:35:48;;;;;;;10.57;5.32;;;;;;;11.43;100.00;98369.63;6238736;23;20077;-69
2022/05/28 03:38:34;;;;;;;9.73;4.88;;;;;;;11.48;100.00;98366.78;6240966;23;20026;-61
2022/05/28 03:41:19;;;;;;;7.28;3.67;;;;;;;11.46;100.00;98358.00;6249161;23;20047;-62
2022/05/28 03:44:03;;;;;;;12.40;4.07;;;;;;;11.32;100.00;98353.31;6241215;23;20027;-61
2022/05/28 03:46:48;;;;;;;4.45;3.67;;;;;;;11.08;100.00;98325.25;6241285;23;20027;-63
2022/05/28 03:49:35;;;;;;;5.10;4.10;;;;;;;11.20;100.00;98330.00;6228411;23;20039;-60
2022/05/28 03:52:20;;;;;;;6.15;3.72;;;;;;;11.27;100.00;98349.19;6251416;23;20027;-61
2022/05/28 03:55:05;;;;;;;9.57;4.20;;;;;;;11.17;100.00;98331.94;6225875;23;20031;-62
2022/05/28 03:57:49;;;;;;;5.22;3.47;;;;;;;11.18;100.00;98352.22;6217834;23;20078;-60
2022/05/28 04:00:35;;;;;;;7.88;4.25;;;;;;;11.14;100.00;98355.94;6239498;23;20031;-63
2022/05/28 04:03:19;;;;;;;8.23;4.22;;;;;;;11.20;100.00;98343.25;6251497;23;20027;-62
2022/05/28 04:06:04;;;;;;;9.10;4.00;;;;;;;11.37;100.00;98350.47;6218394;23;20418;-61
2022/05/28 04:08:48;;;;;;;9.23;4.65;;;;;;;11.32;100.00;98336.56;6241200;23;20050;-62
2022/05/28 04:11:35;;;;;;;9.18;4.07;;;;;;;11.39;100.00;98341.50;6241428;23;20055;-62
2022/05/28 04:14:20;;;;;;;9.38;4.97;;;;;;;11.32;100.00;98337.41;6238852;23;20442;-62
2022/05/28 04:17:06;;;;;;;11.48;4.45;;;;;;;11.34;100.00;98342.66;6241378;23;20536;-62
2022/05/28 04:19:50;;;;;;;8.52;4.15;;;;;;;11.41;100.00;98342.31;6249802;23;20023;-61
2022/05/28 04:22:34;;;;;;;7.93;4.63;;;;;;;11.51;100.00;98332.13;6251299;23;20100;-61
2022/05/28 04:25:19;;;;;;;8.27;4.43;;;;;;;11.52;100.00;98332.03;6241232;23;20257;-62
2022/05/28 04:28:03;;;;;;;12.50;4.27;;;;;;;11.51;100.00;98324.16;6251396;23;20070;-61
2022/05/28 04:30:48;;;;;;;;;;;;;;;11.68;100.00;98332.22;6241736;23;20258;-60
2022/05/28 04:33:32;;;;;;;8.00;5.10;;;;;;;11.78;100.00;98337.03;6249212;23;19980;-68
2022/05/28 04:36:17;;;;;;;7.90;4.95;;;;;;;11.94;100.00;98332.69;6241235;23;20026;-61
2022/05/28 04:39:01;;;;;;;10.35;5.97;;;;;;;11.71;100.00;98334.75;6205036;23;20058;-62
2022/05/28 04:41:45;;;;;;;13.27;6.68;;;;;;;11.56;100.00;98340.72;6241019;23;20031;-64
2022/05/28 04:44:30;;;;;;;14.88;6.72;;;;;;;11.34;100.00;98337.34;6250848;23;20189;-61
2022/05/28 04:47:14;;;;;;;11.85;6.93;;;;;;;11.46;100.00;98332.34;6250987;23;20058;-61
2022/05/28 04:49:59;;;;;;;11.65;7.68;;;;;;;11.34;100.00;98326.72;6241157;23;20043;-62
2022/05/28 04:52:43;;;;;;;12.38;7.78;;;;;;;11.10;100.00;98293.34;6249887;23;20030;-71
2022/05/28 04:55:27;;;;;;;15.00;7.97;;;;;;;11.31;100.00;98326.88;6217865;23;20362;-60
2022/05/28 04:58:13;;;;;;;11.30;6.95;;;;;;;11.49;100.00;98316.28;6248535;23;20355;-61
2022/05/28 05:00:58;;;;;;;11.48;6.05;;;;;;;11.26;100.00;98289.94;6240296;23;20481;-62
2022/05/28 05:03:43;;;;;;;10.25;5.60;;;;;;;11.66;100.00;98311.06;6239702;23;20042;-61
2022/05/28 05:06:27;;;;;;;14.07;5.28;;;;;;;11.93;100.00;98328.34;6250311;23;20026;-62
2022/05/28 05:09:11;;;;;;;6.97;4.45;;;;;;;11.92;100.00;98284.13;6217788;23;20528;-62
2022/05/28 05:11:56;;;;;;;9.07;4.28;;;;;;;12.17;100.00;98321.81;6249802;23;20035;-66
2022/05/28 05:14:40;;;;;;;7.72;4.28;;;;;;;12.17;100.00;98320.94;6248931;23;20401;-62
2022/05/28 05:17:25;;;;;;;11.13;4.35;;;;;;;12.24;100.00;98317.06;6237377;23;20027;-62
2022/05/28 05:20:11;;;;;;;8.65;4.10;;;;;;;12.40;100.00;98326.00;6227197;23;20082;-62
2022/05/28 05:22:56;;;;;;;10.27;4.03;;;;;;;12.46;100.00;98323.03;6238436;23;20030;-61
2022/05/28 05:25:40;;;;;;;10.68;4.25;;;;;;;12.46;100.00;98315.91;6195929;23;20150;-62
2022/05/28 05:28:25;;;;;;;7.70;3.70;;;;;;;12.46;100.00;98313.25;6239978;23;20035;-61
2022/05/28 05:31:09;;;;;;;12.05;3.85;;;;;;;12.54;100.00;98307.56;6250347;23;20071;-63
2022/05/28 05:33:53;;;;;;;11.43;3.83;;;;;;;12.74;100.00;98318.88;6248853;23;20027;-62
2022/05/28 05:36:38;;;;;;;11.93;3.35;;;;;;;12.84;100.00;98309.50;6237644;23;20085;-67
2022/05/28 05:39:22;;;;;;;10.70;3.38;;;;;;;13.15;100.00;98322.06;6217926;23;20536;-61
2022/05/28 05:42:07;;;;;;;9.07;3.90;;;;;;;13.32;100.00;98320.22;6238205;23;20027;-63
2022/05/28 05:44:53;;;;;;;9.95;3.97;;;;;;;13.00;100.00;98293.59;6248861;23;20111;-63
2022/05/28 05:47:38;;;;;;;11.93;3.90;;;;;;;13.00;100.00;98320.22;6240325;23;20119;-63
2022/05/28 05:50:22;;;;;;;7.63;3.50;;;;;;;12.64;100.00;98320.31;6249913;23;20078;-63
2022/05/28 05:53:08;;;;;;;9.95;3.55;;;;;;;12.53;100.00;98317.31;6251623;23;20081;-64
2022/05/28 05:55:52;;;;;;;6.38;3.47;;;;;;;12.38;100.00;98325.22;6226349;23;20030;-63
2022/05/28 05:58:36;;;;;;;7.32;2.60;;;;;;;12.33;100.00;98325.44;6241957;23;20027;-62
2022/05/28 06:01:21;;;;;;;8.38;2.10;;;;;;;12.29;100.00;98330.97;6249512;23;20035;-62
2022/05/28 06:04:05;;;;;;;11.20;1.90;;;;;;;12.27;100.00;98319.56;6252041;23;20335;-62
2022/05/28 06:06:50;;;;;;;5.20;2.08;;;;;;;12.56;100.00;98324.28;6241829;23;20035;-63
2022/05/28 06:09:35;;;;;;;5.97;1.70;;;;;;;12.71;100.00;98326.16;6218711;23;20031;-62
2022/05/28 06:12:20;;;;;;;13.77;2.70;;;;;;;12.58;100.00;98338.38;6241550;23;20031;-62
2022/05/28 06:15:05;;;;;;;6.55;2.00;;;;;;;12.42;100.00;98326.78;6249946;23;20074;-71
2022/05/28 06:17:50;;;;;;;7.20;2.40;;;;;;;12.38;100.00;98325.22;6251752;23;20404;-61
2022/05/28 06:20:34;;;;;;;2.83;1.40;;;;;;;12.36;100.00;98321.75;6216345;23;20046;-63
2022/05/28 06:23:19;;;;;;;3.65;1.80;;;;;;;12.17;100.00;98318.28;6251912;23;20099;-63
2022/05/28 06:26:05;;;;;;;8.55;2.00;;;;;;;12.24;100.00;98327.69;6251175;23;20532;-62
2022/05/28 06:28:50;;;;;;;5.60;1.65;;;;;;;12.27;100.00;98325.72;6229036;23;20481;-63
2022/05/28 06:31:35;;;;;;;3.20;1.63;;;;;;;12.31;100.00;98324.63;6241743;23;20114;-63
2022/05/28 06:34:19;;;;;;;5.03;2.00;;;;;;;12.27;100.00;98328.38;6195765;23;20424;-71
2022/05/28 06:37:07;;;;;;;8.93;2.10;;;;;;;12.19;100.00;98298.69;6218694;23;20030;-62
2022/05/28 06:39:52;;;;;;;6.78;1.80;;;;;;;12.19;100.00;98335.03;6249085;23;20362;-61
2022/05/28 06:42:36;;;;;;;3.88;2.17;;;;;;;12.16;100.00;98325.44;6251338;23;20027;-62
2022/05/28 06:45:21;;;;;;;8.30;2.92;;;;;;;12.21;100.00;98328.72;6207745;23;20117;-62
2022/05/28 06:48:06;;;;;;;5.50;2.30;;;;;;;12.38;100.00;98319.91;6218163;23;20070;-62
2022/05/28 06:51:02;;;;;;;9.77;2.15;;;;;;;12.55;100.00;98319.91;6251277;23;20461;-61
2022/05/28 06:53:48;;;;;;;5.93;3.33;;;;;;;12.83;100.00;98338.81;6248925;23;20532;-62
2022/05/28 06:56:33;;;;;;;9.25;2.83;;;;;;;12.76;100.00;98340.06;6240580;23;20031;-61
2022/05/28 06:59:18;;;;;;;;;;;;;;;12.79;100.00;98339.91;6218536;23;20031;-63
2022/05/28 07:02:03;;;;;;;7.07;2.20;;;;;;;12.92;100.00;98333.03;6240426;23;19974;-71
2022/05/28 07:04:47;;;;;;;7.00;2.55;;;;;;;12.99;100.00;98339.78;6240846;23;20031;-62
2022/05/28 07:07:32;;;;;;;5.20;2.38;;;;;;;13.15;100.00;98346.00;6238527;23;20379;-64
2022/05/28 07:10:16;;;;;;;4.10;2.30;;;;;;;13.30;100.00;98345.22;6240924;23;20031;-62
2022/05/28 07:13:01;;;;;;;6.30;2.33;;;;;;;13.48;100.00;98341.53;6249269;23;20161;-63
2022/05/28 07:15:45;;;;;;;4.00;2.10;;;;;;;13.32;100.00;98349.50;6228278;23;20054;-61
2022/05/28 07:18:30;;;;;;;6.07;1.70;;;;;;;13.37;100.00;98359.88;6250524;23;20039;-63
2022/05/28 07:21:14;;;;;;;5.93;1.83;;;;;;;13.48;100.00;98338.88;6240395;23;20073;-64
2022/05/28 07:23:59;;;;;;;3.28;2.00;;;;;;;13.56;100.00;98363.28;6251142;23;20031;-63
2022/05/28 07:26:43;;;;;;;4.57;2.78;;;;;;;13.56;100.00;98360.63;6238652;23;20074;-70
2022/05/28 07:29:28;;;;;;;6.00;2.08;;;;;;;13.48;100.00;98362.84;6241015;23;20157;-63
2022/05/28 07:32:12;;;;;;;3.72;1.90;;;;;;;13.31;100.00;98366.44;6215925;23;20030;-63
2022/05/28 07:34:57;;;;;;;6.72;1.90;;;;;;;13.08;100.00;98365.91;6240939;23;20089;-62
2022/05/28 07:37:42;;;;;;;4.78;1.70;;;;;;;12.75;100.00;98333.88;6249954;23;20039;-62
2022/05/28 07:40:26;;;;;;;6.00;1.50;;;;;;;12.98;100.00;98380.63;6251170;23;20047;-62
2022/05/28 07:43:12;;;;;;;5.97;1.58;;;;;;;13.00;100.00;98378.75;6240997;23;20070;-63
2022/05/28 07:45:56;;;;;;;3.65;1.88;;;;;;;13.05;100.00;98377.56;6205400;23;20509;-67
2022/05/28 07:48:41;;;;;;;3.97;1.95;;;;;;;12.84;100.00;98388.41;6251084;23;20074;-63
2022/05/28 07:51:27;;;;;;;6.07;2.10;;;;;;;12.62;100.00;98393.13;6215553;23;20066;-62
2022/05/28 07:54:11;;;;;;;6.50;1.90;;;;;;;12.46;100.00;98408.09;6249987;23;20031;-62
2022/05/28 07:56:56;;;;;;;5.68;2.05;;;;;;;12.06;100.00;98402.97;6250034;23;20030;-63
2022/05/28 07:59:40;;;;;;;12.48;2.58;;;;;;;11.75;100.00;98379.66;6240821;23;20027;-63
2022/05/28 08:02:25;;;;;;;4.20;1.88;;;;;;;11.97;100.00;98411.38;6218183;23;20100;-62
2022/05/28 08:05:09;;;;;;;5.45;2.30;;;;;;;11.85;100.00;98382.75;6238928;23;20107;-71
2022/05/28 08:07:54;;;;;;;7.43;2.53;;;;;;;12.01;100.00;98404.97;6250686;23;20054;-64
2022/05/28 08:10:38;;;;;;;10.40;2.53;;;;;;;12.11;100.00;98416.91;6243782;23;20026;-64
2022/05/28 08:13:25;;;;;;;10.93;2.60;;;;;;;12.19;100.00;98426.22;6250745;23;20479;-63
2022/05/28 08:16:09;;;;;;;4.65;2.30;;;;;;;12.19;100.00;98423.56;6205197;23;20109;-63
2022/05/28 08:18:54;;;;;;;6.65;2.88;;;;;;;12.19;100.00;98420.06;6227463;23;20442;-62
2022/05/28 08:24:42;;;;;;;4.43;2.28;;;;;;;12.08;100.00;98433.88;6216457;23;20027;-64
2022/05/28 08:27:26;;;;;;;5.50;2.58;;;;;;;11.99;100.00;98444.91;6227781;23;20094;-64
2022/05/28 08:30:11;;;;;;;5.72;3.55;;;;;;;11.98;100.00;98458.25;6205854;23;20077;-63
2022/05/28 08:32:55;;;;;;;5.63;3.15;;;;;;;12.00;100.00;98446.66;6249594;23;20081;-75
2022/05/28 08:35:42;;;;;;;6.28;2.45;;;;;;;11.98;100.00;98453.81;6240533;23;20154;-63
2022/05/28 08:38:27;;;;;;;4.50;2.50;;;;;;;12.00;100.00;98461.72;6214813;23;20433;-66
2022/05/28 08:41:41;;;;;;;6.68;3.33;;;;;;;11.88;100.00;98433.06;6217077;23;20438;-63
2022/05/28 08:44:39;;;;;;;5.43;3.70;;;;;;;12.03;100.00;98465.06;6239721;23;20070;-62
2022/05/28 08:47:35;;;;;;;8.48;5.18;;;;;;;12.07;100.00;98473.78;6196058;23;20144;-63
2022/05/28 08:50:19;;;;;;;9.02;4.22;;;;;;;12.00;100.00;98467.91;6214882;23;20026;-63
2022/05/28 08:53:12;;;;;;;11.43;4.45;;;;;;;11.97;100.00;98483.97;6239578;23;20073;-63
2022/05/28 08:55:58;;;;;;;6.40;4.00;;;;;;;11.99;100.00;98486.56;6239918;23;20026;-62
2022/05/28 08:58:47;;;;;;;10.85;4.57;;;;;;;12.11;100.00;98491.31;6214342;23;20027;-64
2022/05/28 09:01:35;;;;;;;9.65;4.80;;;;;;;12.28;100.00;98492.25;6217214;23;20101;-61
2022/05/28 09:04:47;;;;;;;9.13;4.30;;;;;;;12.52;100.00;98490.22;6239618;23;20026;-63
2022/05/28 09:07:32;;;;;;;9.30;4.30;;;;;;;12.67;100.00;98500.94;6216985;23;20047;-61
2022/05/28 09:10:16;;;;;;;10.73;5.85;;;;;;;12.80;100.00;98496.78;6239478;23;20026;-61
2022/05/28 09:13:24;;;;;;;6.90;3.15;;;;;;;13.06;100.00;98504.34;6248543;23;20107;-61
2022/05/28 09:16:25;;;;;;;3.97;2.65;;;;;;;12.99;100.00;98499.44;6226507;23;20027;-60
2022/05/28 09:19:19;;;;;;;6.55;3.28;;;;;;;12.88;100.00;98496.38;6246893;23;20027;-62
2022/05/28 09:22:04;;;;;;;6.88;2.72;;;;;;;12.41;100.00;98487.19;6216417;23;20446;-62
2022/05/28 09:24:48;;;;;;;7.43;2.80;;;;;;;12.12;100.00;98447.84;6216663;23;20047;-64
2022/05/28 09:27:55;;;;;;;5.88;3.03;;;;;;;12.51;100.00;98484.00;6247233;23;20081;-64
2022/05/28 09:30:54;;;;;;;3.13;1.75;;;;;;;12.32;100.00;98472.56;6239182;23;20039;-70
2022/05/28 09:34:01;;;;;;;3.90;1.42;;;;;;;12.24;100.00;98495.97;6239210;23;20108;-64
2022/05/28 09:37:04;;;;;;;1.65;1.23;;;;;;;11.93;100.00;98471.75;6249001;23;20405;-63
2022/05/28 09:40:11;;;;;;;4.03;1.40;;;;;;;12.04;100.00;98501.38;6226454;23;20026;-61
2022/05/28 09:43:09;;;;;;;7.63;2.25;;;;;;;11.87;100.00;98480.00;6216743;23;20070;-63
2022/05/28 09:46:06;;;;;;;5.18;1.92;;;;;;;12.09;100.00;98509.09;6246927;23;20127;-62
2022/05/28 09:49:02;;;;;;;5.97;2.00;;;;;;;12.13;100.00;98508.91;6205065;23;20073;-71
2022/05/28 09:52:05;;;;;;;4.40;1.60;;;;;;;12.27;100.00;98513.56;6249814;23;20354;-61
2022/05/28 09:54:50;;;;;;;5.70;1.85;;;;;;;12.25;100.00;98515.44;6226894;23;20074;-61
2022/05/28 09:57:45;;;;;;;5.45;2.53;;;;;;;12.28;100.00;98533.91;6247566;23;20030;-62
2022/05/28 10:00:31;;;;;;;6.05;3.38;;;;;;;12.37;100.00;98533.47;6249130;23;20070;-63
2022/05/28 10:06:32;;;;;;;8.98;4.05;;;;;;;12.41;100.00;98551.00;6250535;23;20027;-61
2022/05/28 10:09:24;;;;;;;6.90;3.25;;;;;;;12.32;100.00;98562.06;6247881;23;20366;-64
2022/05/28 10:12:16;;;;;;;5.15;2.78;;;;;;;12.45;100.00;98568.53;6249490;23;20051;-62
2022/05/28 10:15:03;;;;;;;7.78;3.40;;;;;;;12.54;100.00;98568.13;6249038;23;20071;-63
2022/05/28 10:18:01;;;;;;;6.80;3.28;;;;;;;12.75;100.00;98567.94;6193138;23;20434;-69
2022/05/28 10:21:16;;;;;;;7.10;3.03;;;;;;;12.69;100.00;98565.59;6247624;23;20027;-61
2022/05/28 10:24:04;;;;;;;4.32;2.83;;;;;;;12.63;100.00;98576.50;6238796;23;20031;-63
2022/05/28 10:26:56;;;;;;;4.63;2.55;;;;;;;12.69;100.00;98584.19;6249414;23;20532;-66
2022/05/28 10:29:48;;;;;;;4.47;2.88;;;;;;;12.90;100.00;98577.84;6203399;23;20477;-64
2022/05/28 10:32:35;;;;;;;7.03;2.70;;;;;;;13.05;100.00;98587.78;6239814;23;20031;-63
2022/05/28 10:35:27;;;;;;;4.35;2.30;;;;;;;13.08;100.00;98587.66;6205325;23;20062;-63
2022/05/28 10:38:17;;;;;;;6.63;2.33;;;;;;;13.21;100.00;98590.53;6214839;23;20023;-65
2022/05/28 10:41:26;;;;;;;2.38;1.65;;;;;;;13.36;100.00;98600.44;6240967;23;20023;-63
2022/05/28 10:44:16;;;;;;;4.05;2.00;;;;;;;13.33;100.00;98592.59;6251142;23;20058;-63
2022/05/28 10:47:28;;;;;;;3.17;2.05;;;;;;;13.53;100.00;98597.81;6218286;23;20086;-64
2022/05/28 10:50:22;;;;;;;4.50;1.88;;;;;;;13.53;100.00;98604.00;6241285;23;20374;-63
2022/05/28 10:53:28;;;;;;;2.78;1.80;;;;;;;13.93;100.00;98609.00;6238824;23;20027;-65
2022/05/28 10:56:44;;;;;;;2.70;1.50;;;;;;;14.49;100.00;98603.38;6227572;23;20031;-70
2022/05/28 10:59:47;;;;;;;4.38;1.60;;;;;;;14.36;100.00;98615.63;6238733;23;20030;-71
2022/05/28 11:03:09;;;;;;;4.50;1.65;;;;;;;14.52;100.00;98605.88;6251241;23;20027;-64
2022/05/28 11:06:09;;;;;;;4.32;2.10;;;;;;;15.06;100.00;98607.28;6249564;23;20031;-74
2022/05/28 11:09:16;;;;;;;3.42;1.55;;;;;;;15.40;100.00;98609.81;6251222;23;20100;-63
2022/05/28 11:12:14;;;;;;;4.05;1.73;;;;;;;15.52;100.00;98606.44;6228682;23;20039;-64
2022/05/28 11:15:12;;;;;;;4.13;1.50;;;;;;;15.64;100.00;98614.59;6218390;23;20027;-63
2022/05/28 11:18:37;;;;;;;3.35;1.60;;;;;;;15.70;100.00;98613.38;6196730;23;20498;-64
2022/05/28 11:21:50;;;;;;;2.17;1.48;;;;;;;16.01;100.00;98610.59;6218224;23;20043;-63
2022/05/28 11:24:53;;;;;;;5.00;1.70;;;;;;;15.91;100.00;98614.78;6228183;23;20030;-63
2022/05/28 11:27:52;;;;;;;2.97;1.90;;;;;;;15.80;100.00;98622.56;6240628;23;20571;-62
2022/05/28 11:30:39;;;;;;;3.38;2.10;;;;;;;15.74;100.00;98622.94;6247084;23;20035;-62
2022/05/28 11:33:35;;;;;;;4.70;1.83;;;;;;;15.87;100.00;98624.78;6228032;23;20023;-63
2022/05/28 11:36:29;;;;;;;3.58;2.00;;;;;;;16.38;100.00;98644.88;6240824;23;20081;-62
2022/05/28 11:39:39;;;;;;;4.15;1.80;;;;;;;16.44;100.00;98602.56;6248250;23;20027;-61
2022/05/28 11:42:31;;;;;;;2.92;1.63;;;;;;;16.63;100.00;98618.34;6194709;23;20035;-67
2022/05/28 11:45:22;;;;;;;4.53;1.80;;;;;;;16.90;100.00;98621.97;6250995;23;20027;-62
2022/05/28 11:48:17;;;;;;;5.10;1.60;;;;;;;16.86;100.00;98621.28;6240668;23;20031;-61
2022/05/28 11:51:29;;;;;;;2.65;1.00;;;;;;;17.25;100.00;98620.56;6239185;23;20124;-61
2022/05/28 11:54:27;;;;;;;4.30;1.05;;;;;;;17.51;100.00;98615.25;6216086;23;20035;-62
2022/05/28 11:57:34;;;;;;;3.25;0.90;;;;;;;17.47;100.00;98628.94;6249398;23;20115;-73
2022/05/28 12:00:20;;;;;;;3.78;1.00;;;;;;;17.47;100.00;98631.63;6227822;23;20359;-66
2022/05/28 12:03:12;;;;;;;2.03;0.90;;;;;;;17.62;100.00;98634.16;6250840;23;20031;-62
2022/05/28 12:06:08;;;;;;;3.55;1.02;;;;;;;17.78;100.00;98631.31;6239237;23;20023;-68
2022/05/28 12:09:34;;;;;;;3.97;1.10;;;;;;;18.11;100.00;98633.53;6206666;23;20125;-62
2022/05/28 12:12:28;;;;;;;;;;;;;;;18.12;100.00;98627.19;6076373;23;20061;-62
2022/05/28 12:15:15;;;;;;;1.65;0.90;;;;;;;17.96;100.00;98656.91;6119254;23;19923;-62
2022/05/28 12:18:06;;;;;;;2.92;1.20;;;;;;;17.38;100.00;98638.41;6098621;23;20072;-63
2022/05/28 12:20:54;;;;;;;4.53;0.80;;;;;;;17.55;100.00;98643.56;6105648;23;20405;-62
2022/05/28 12:23:46;;;;;;;2.05;1.00;;;;;;;17.76;100.00;98644.81;6077860;23;20131;-62
2022/05/28 12:26:47;;;;;;;3.33;1.20;;;;;;;17.73;100.00;98644.16;6119616;23;20077;-61
2022/05/28 12:29:48;;;;;;;3.20;0.90;;;;;;;17.36;100.00;98645.69;6118216;23;20250;-61
2022/05/28 12:32:43;;;;;;;2.88;1.00;;;;;;;16.84;100.00;98657.13;6075534;23;20048;-61
2022/05/28 12:35:28;;;;;;;2.40;0.80;;;;;;;16.39;100.00;98662.63;6118011;23;20057;-62
2022/05/28 12:38:34;;;;;;;3.50;1.10;;;;;;;16.72;100.00;98666.81;6106817;23;20395;-63
2022/05/28 12:41:19;;;;;;;;;;;;;;;17.22;100.00;98655.56;6096314;23;20552;-60
2022/05/28 12:44:21;;;;;;;2.53;0.88;;;;;;;17.31;100.00;98654.97;6097111;23;19919;-60
2022/05/28 12:47:06;;;;;;;4.45;0.95;;;;;;;17.36;100.00;98659.09;6215754;23;20031;-60
2022/05/28 12:49:58;;;;;;;;;;;;;;;17.09;100.00;98660.84;6247922;23;20108;-59
2022/05/28 12:53:08;;;;;;;2.58;0.90;;;;;;;17.12;100.00;98667.81;6217166;23;19937;-61
2022/05/28 12:56:06;;;;;;;3.47;0.73;;;;;;;17.22;100.00;98663.63;6250230;23;20327;-59
2022/05/28 12:58:53;;;;;;;3.00;1.00;;;;;;;17.08;100.00;98668.97;6227347;23;20131;-60
2022/05/28 13:01:47;;;;;;;3.25;0.88;;;;;;;17.02;100.00;98646.13;6249406;23;20245;-59
2022/05/28 13:04:39;;;;;;;4.63;1.00;;;;;;;17.56;100.00;98669.41;6226473;23;20103;-61
2022/05/28 13:07:37;;;;;;;2.30;0.98;;;;;;;17.06;100.00;98671.75;6250115;23;20128;-62
2022/05/28 13:10:26;;;;;;;4.75;0.80;;;;;;;16.68;100.00;98681.34;6250228;23;20362;-58
2022/05/28 13:13:40;;;;;;;3.03;0.68;;;;;;;16.91;100.00;98677.22;6247819;23;20307;-60
2022/05/28 13:16:57;;;;;;;4.30;0.70;;;;;;;17.19;100.00;98677.19;6214914;23;20031;-58
2022/05/28 13:20:13;;;;;;;4.40;1.35;;;;;;;17.01;100.00;98683.75;6193484;23;20077;-59